Time;durP1;ratioP1;P1;durP2;ratioP2;P2;SDS_P1;SDS_P2;PMS_P1;PMS_P2;Temp;Humidity;BMP_temperature;BMP_pressure;BME280_temperature;BME280_humidity;BME280_pressure;Samples;Min_cycle;Max_cycle;Signal;HPM_P1;HPM_P2
2022/12/08 00:01:22;;;;;;;33.80;24.80;;;7.00;1.00;;;;;;5027763;28;20040;-59
2022/12/08 00:03:48;;;;;;;36.77;27.37;;;7.00;1.00;;;;;;5033357;28;20033;-60
2022/12/08 00:09:28;;;;;;;34.20;26.38;;;7.10;1.00;;;;;;5033336;28;20037;-60
2022/12/08 00:11:55;;;;;;;;;;;7.10;1.00;;;;;;5020780;28;20384;-60
2022/12/08 00:14:45;;;;;;;34.03;24.20;;;7.10;1.00;;;;;;5028195;28;20401;-60
2022/12/08 00:17:13;;;;;;;32.53;23.73;;;7.20;1.00;;;;;;5030023;28;20328;-60
2022/12/08 00:19:39;;;;;;;36.07;27.00;;;7.20;1.00;;;;;;5027155;28;20034;-59
2022/12/08 00:22:06;;;;;;;34.63;25.87;;;7.20;1.00;;;;;;5033035;28;20459;-59
2022/12/08 00:24:35;;;;;;;33.37;24.67;;;7.20;1.00;;;;;;5033034;28;20053;-59
2022/12/08 00:27:03;;;;;;;35.50;26.03;;;7.30;1.00;;;;;;5018801;28;20017;-60
2022/12/08 00:29:29;;;;;;;37.30;27.17;;;7.20;1.00;;;;;;5030106;28;20128;-60
2022/12/08 00:31:55;;;;;;;34.07;26.00;;;7.20;1.00;;;;;;5028544;28;20043;-60
2022/12/08 00:34:20;;;;;;;33.83;25.40;;;7.30;1.00;;;;;;5032684;28;20451;-60
2022/12/08 00:36:46;;;;;;;33.90;25.80;;;7.30;1.00;;;;;;5031507;28;20025;-59
2022/12/08 00:39:14;;;;;;;35.50;25.77;;;7.30;1.00;;;;;;5032920;28;20467;-59
2022/12/08 00:44:24;;;;;;;34.57;25.73;;;7.30;1.00;;;;;;5026501;28;20146;-60
2022/12/08 00:46:49;;;;;;;31.17;23.60;;;7.20;1.00;;;;;;5012687;28;20030;-60
2022/12/08 00:49:15;;;;;;;33.63;25.53;;;7.20;1.00;;;;;;5024118;28;20034;-60
2022/12/08 00:51:42;;;;;;;32.07;24.60;;;7.20;1.00;;;;;;5032231;28;20025;-61
2022/12/08 00:54:08;;;;;;;31.73;24.33;;;7.20;1.00;;;;;;5017902;28;20062;-60
2022/12/08 00:56:34;;;;;;;32.27;25.97;;;7.20;1.00;;;;;;5015261;28;20066;-61
2022/12/08 00:58:59;;;;;;;30.23;22.83;;;7.20;1.00;;;;;;5023277;28;20108;-60
2022/12/08 01:01:26;;;;;;;32.97;24.60;;;7.10;1.00;;;;;;5032289;28;20029;-60
2022/12/08 01:03:52;;;;;;;36.07;26.57;;;7.20;1.00;;;;;;5030877;28;20029;-60
2022/12/08 01:06:18;;;;;;;32.13;25.07;;;7.20;1.00;;;;;;5031951;28;20084;-59
2022/12/08 01:08:43;;;;;;;32.90;24.93;;;7.20;1.00;;;;;;5022685;28;20021;-61
2022/12/08 01:11:13;;;;;;;31.40;24.77;;;7.20;1.00;;;;;;5032178;28;20044;-60
2022/12/08 01:13:38;;;;;;;33.43;25.80;;;7.30;1.00;;;;;;5015229;28;20026;-59
2022/12/08 01:16:05;;;;;;;36.87;26.50;;;7.20;1.00;;;;;;5012433;28;20037;-60
2022/12/08 01:18:31;;;;;;;33.17;26.10;;;7.20;1.00;;;;;;5011589;28;20314;-60
2022/12/08 01:21:07;;;;;;;34.53;26.23;;;7.20;1.00;;;;;;5019486;28;20029;-60
2022/12/08 01:23:34;;;;;;;35.63;27.77;;;7.20;1.00;;;;;;5024777;28;20022;-60
2022/12/08 01:26:04;;;;;;;33.57;26.80;;;7.20;1.00;;;;;;5025647;28;20018;-60
2022/12/08 01:28:31;;;;;;;33.23;26.60;;;7.30;1.00;;;;;;5026100;28;20030;-60
2022/12/08 01:30:57;;;;;;;33.77;26.57;;;7.20;1.00;;;;;;5024247;28;20091;-59
2022/12/08 01:33:23;;;;;;;33.87;25.53;;;7.20;1.00;;;;;;5013939;28;20069;-59
2022/12/08 01:35:49;;;;;;;34.53;26.00;;;7.30;1.00;;;;;;5012080;28;20395;-60
2022/12/08 01:38:15;;;;;;;33.23;25.73;;;7.20;1.00;;;;;;5025686;28;20029;-59
2022/12/08 01:40:40;;;;;;;34.43;26.40;;;7.30;1.00;;;;;;5020288;28;20087;-59
2022/12/08 01:43:14;;;;;;;35.13;26.03;;;7.20;1.00;;;;;;5031793;28;20075;-59
2022/12/08 01:45:40;;;;;;;33.37;25.70;;;7.30;1.00;;;;;;5031893;28;20022;-60
2022/12/08 01:48:10;;;;;;;35.37;26.23;;;7.30;1.00;;;;;;5027081;28;20392;-60
2022/12/08 01:50:38;;;;;;;32.73;26.10;;;7.30;1.00;;;;;;5017285;28;20494;-60
2022/12/08 01:53:13;;;;;;;33.97;26.67;;;7.20;1.00;;;;;;5031506;28;20049;-59
2022/12/08 01:55:43;;;;;;;;;;;7.30;1.00;;;;;;5032100;28;20536;-60
2022/12/08 01:58:21;;;;;;;34.07;25.37;;;7.30;1.00;;;;;;5029976;28;19984;-59
2022/12/08 02:00:48;;;;;;;31.37;24.80;;;7.30;1.00;;;;;;5030432;28;20478;-59
2022/12/08 02:03:21;;;;;;;33.10;26.40;;;7.30;1.00;;;;;;5034871;28;20029;-60
2022/12/08 02:05:47;;;;;;;34.73;25.80;;;7.30;1.00;;;;;;5035920;28;20031;-59
2022/12/08 02:08:13;;;;;;;36.23;27.60;;;7.30;1.00;;;;;;5035725;28;20056;-60
2022/12/08 02:10:41;;;;;;;34.57;26.63;;;7.30;1.00;;;;;;5019418;28;20124;-59
2022/12/08 02:13:14;;;;;;;32.80;26.80;;;7.30;1.00;;;;;;5013172;28;20041;-60
2022/12/08 02:16:08;;;;;;;31.83;25.43;;;7.30;1.00;;;;;;5028431;28;20033;-59
2022/12/08 02:18:45;;;;;;;34.13;26.63;;;7.30;1.00;;;;;;5035297;28;20024;-59
2022/12/08 02:21:34;;;;;;;33.40;26.17;;;7.20;1.00;;;;;;5033479;28;20044;-59
2022/12/08 02:24:16;;;;;;;32.87;25.70;;;7.20;1.00;;;;;;5015173;28;20124;-59
2022/12/08 02:26:57;;;;;;;33.40;26.17;;;7.30;1.00;;;;;;5009946;28;20021;-60
2022/12/08 02:29:57;;;;;;;37.27;26.90;;;7.30;1.00;;;;;;5033744;28;20029;-59
2022/12/08 02:32:47;;;;;;;35.33;26.80;;;7.20;1.00;;;;;;5025888;28;20059;-60
2022/12/08 02:35:54;;;;;;;36.47;27.50;;;7.30;1.00;;;;;;5010093;28;20040;-60
2022/12/08 02:38:25;;;;;;;36.80;27.63;;;7.30;1.00;;;;;;5018827;28;20045;-59
2022/12/08 02:41:02;;;;;;;31.70;25.27;;;7.30;1.00;;;;;;5034564;28;20040;-60
2022/12/08 02:43:46;;;;;;;34.87;26.37;;;7.40;1.00;;;;;;5026655;28;20025;-60
2022/12/08 02:46:23;;;;;;;34.70;26.90;;;7.40;1.00;;;;;;5035036;28;20104;-60
2022/12/08 02:48:51;;;;;;;35.77;26.80;;;7.30;1.00;;;;;;5034743;28;20037;-60
2022/12/08 02:51:17;;;;;;;36.63;28.77;;;7.30;1.00;;;;;;5034639;28;20022;-60
2022/12/08 02:53:43;;;;;;;36.77;27.17;;;7.40;1.00;;;;;;5033141;28;20053;-59
2022/12/08 02:56:31;;;;;;;34.50;27.70;;;7.40;1.00;;;;;;5034925;28;20060;-60
2022/12/08 02:58:56;;;;;;;36.67;28.00;;;7.30;1.00;;;;;;5021035;28;20041;-60
2022/12/08 03:01:31;;;;;;;33.27;26.50;;;7.40;1.00;;;;;;5034671;28;20025;-60
2022/12/08 03:04:01;;;;;;;31.27;26.00;;;7.40;1.00;;;;;;5033461;28;20033;-60
2022/12/08 03:06:51;;;;;;;33.13;24.77;;;7.40;1.00;;;;;;5034510;28;20032;-60
2022/12/08 03:09:40;;;;;;;31.73;25.10;;;7.50;1.00;;;;;;5034875;28;20112;-60
2022/12/08 03:12:24;;;;;;;38.53;26.50;;;7.30;1.00;;;;;;5031469;28;20084;-61
2022/12/08 03:14:54;;;;;;;36.00;26.60;;;7.40;1.00;;;;;;5034498;28;20025;-61
2022/12/08 03:17:24;;;;;;;36.00;26.47;;;7.40;1.00;;;;;;5034304;28;20028;-61
2022/12/08 03:19:52;;;;;;;37.43;26.47;;;7.40;1.00;;;;;;5034061;28;20029;-60
2022/12/08 03:22:22;;;;;;;34.13;26.40;;;7.30;1.00;;;;;;5034365;28;20030;-60
2022/12/08 03:24:49;;;;;;;34.23;28.00;;;7.30;1.00;;;;;;5026117;28;20030;-60
2022/12/08 03:27:18;;;;;;;34.53;26.57;;;7.40;1.00;;;;;;5014390;28;20069;-60
2022/12/08 03:29:50;;;;;;;36.57;26.87;;;7.40;1.00;;;;;;5032988;28;20087;-60
2022/12/08 03:32:34;;;;;;;34.00;26.73;;;7.50;1.00;;;;;;5034077;28;20034;-60
2022/12/08 03:35:08;;;;;;;34.42;26.50;;;7.50;1.00;;;;;;5028573;28;20420;-60
2022/12/08 03:37:36;;;;;;;35.17;26.60;;;7.40;1.00;;;;;;5024132;28;20120;-60
2022/12/08 03:40:04;;;;;;;34.83;26.47;;;7.40;1.00;;;;;;5014272;28;20037;-60
2022/12/08 03:42:29;;;;;;;35.83;26.33;;;7.30;1.00;;;;;;5026546;28;20049;-60
2022/12/08 03:44:55;;;;;;;32.67;25.33;;;7.40;1.00;;;;;;5033893;28;20081;-60
2022/12/08 03:47:20;;;;;;;36.40;27.93;;;7.20;1.00;;;;;;5015252;28;20472;-60
2022/12/08 03:49:46;;;;;;;33.57;25.87;;;7.20;1.00;;;;;;5027701;28;20041;-60
2022/12/08 03:52:12;;;;;;;35.50;27.17;;;7.30;1.00;;;;;;5033191;28;20025;-60
2022/12/08 03:54:37;;;;;;;33.60;25.83;;;7.20;1.00;;;;;;5033572;28;20029;-60
2022/12/08 03:57:03;;;;;;;35.03;26.77;;;7.40;1.00;;;;;;5019435;28;20037;-60
2022/12/08 03:59:28;;;;;;;36.17;28.10;;;7.30;1.00;;;;;;5033401;28;20037;-60
2022/12/08 04:01:54;;;;;;;38.33;28.57;;;7.10;1.00;;;;;;5033480;28;20104;-60
2022/12/08 04:04:20;;;;;;;35.93;25.83;;;7.20;1.00;;;;;;5033275;28;20511;-61
2022/12/08 04:06:46;;;;;;;36.60;28.70;;;7.20;1.00;;;;;;5026466;28;20065;-60
2022/12/08 04:09:11;;;;;;;38.70;28.17;;;7.30;1.00;;;;;;5026370;28;20036;-60
2022/12/08 04:11:37;;;;;;;34.83;24.50;;;7.30;1.00;;;;;;5016022;28;20026;-60
2022/12/08 04:14:03;;;;;;;35.77;27.07;;;7.20;1.00;;;;;;5031797;28;20029;-60
2022/12/08 04:16:28;;;;;;;35.37;26.40;;;7.20;1.00;;;;;;5033279;28;20478;-61
2022/12/08 04:18:54;;;;;;;38.43;27.43;;;7.20;1.00;;;;;;5032993;28;20260;-60
2022/12/08 04:21:20;;;;;;;38.63;27.50;;;7.30;1.00;;;;;;5027034;28;20391;-60
2022/12/08 04:23:45;;;;;;;35.70;25.83;;;7.20;1.00;;;;;;5013297;28;20135;-60
2022/12/08 04:26:12;;;;;;;40.73;26.30;;;7.20;1.00;;;;;;5029917;28;20025;-60
2022/12/08 04:28:37;;;;;;;42.77;29.67;;;7.10;1.00;;;;;;5033468;28;20207;-61
2022/12/08 04:31:04;;;;;;;41.40;29.00;;;7.20;1.00;;;;;;5033192;28;20029;-60
2022/12/08 04:33:30;;;;;;;42.37;27.83;;;7.30;1.00;;;;;;5033370;28;20103;-60
2022/12/08 04:35:55;;;;;;;40.27;28.73;;;7.10;1.00;;;;;;5028573;28;20022;-60
2022/12/08 04:38:21;;;;;;;40.80;28.97;;;7.30;1.00;;;;;;5032364;28;20394;-61
2022/12/08 04:40:47;;;;;;;40.10;28.60;;;7.20;1.00;;;;;;5031653;28;20053;-60
2022/12/08 04:43:12;;;;;;;41.20;27.30;;;7.20;1.00;;;;;;5032579;28;20021;-60
2022/12/08 04:45:39;;;;;;;38.77;27.10;;;7.10;1.00;;;;;;5032536;28;20022;-60
2022/12/08 04:48:05;;;;;;;44.33;28.27;;;7.20;1.00;;;;;;5030841;28;20514;-60
2022/12/08 04:50:31;;;;;;;43.23;29.37;;;7.10;1.00;;;;;;5020243;28;20029;-60
2022/12/08 04:52:56;;;;;;;38.03;25.60;;;7.20;1.00;;;;;;5032488;28;20053;-60
2022/12/08 04:55:22;;;;;;;41.10;28.40;;;7.30;1.00;;;;;;5032507;28;20499;-60
2022/12/08 04:57:48;;;;;;;42.27;28.73;;;7.20;1.00;;;;;;5032490;28;20040;-60
2022/12/08 05:00:14;;;;;;;44.37;30.13;;;7.20;1.00;;;;;;5032607;28;20029;-60
2022/12/08 05:02:39;;;;;;;45.43;30.30;;;7.30;1.00;;;;;;5031291;28;20025;-60
2022/12/08 05:05:06;;;;;;;41.53;28.00;;;7.30;1.00;;;;;;5027817;28;20026;-60
2022/12/08 05:07:32;;;;;;;37.17;27.33;;;7.30;1.00;;;;;;5032242;28;20025;-60
2022/12/08 05:09:57;;;;;;;40.67;28.87;;;7.30;1.00;;;;;;5032188;28;20561;-60
2022/12/08 05:12:23;;;;;;;40.93;28.43;;;7.30;1.00;;;;;;5030678;28;20125;-60
2022/12/08 05:14:49;;;;;;;42.87;29.00;;;7.30;1.00;;;;;;5032287;28;20087;-60
2022/12/08 05:17:16;;;;;;;42.93;28.90;;;7.30;1.00;;;;;;5032159;28;20035;-60
2022/12/08 05:19:42;;;;;;;37.97;25.60;;;7.20;1.00;;;;;;5021920;28;20083;-59
2022/12/08 05:22:07;;;;;;;38.17;25.63;;;7.30;1.00;;;;;;5030831;28;20033;-60
2022/12/08 05:24:33;;;;;;;37.60;25.03;;;7.20;1.00;;;;;;5031959;28;20088;-60
2022/12/08 05:26:58;;;;;;;39.23;25.87;;;7.30;1.00;;;;;;5031953;28;20489;-60
2022/12/08 05:29:24;;;;;;;38.10;25.10;;;7.20;1.00;;;;;;5030518;28;20029;-60
2022/12/08 05:31:50;;;;;;;32.50;22.80;;;7.30;1.00;;;;;;5031909;28;20095;-60
2022/12/08 05:34:16;;;;;;;34.37;24.43;;;7.20;1.00;;;;;;5026261;28;20460;-60
2022/12/08 05:36:41;;;;;;;33.33;23.00;;;7.20;1.00;;;;;;5010630;28;20050;-60
2022/12/08 05:39:11;;;;;;;32.17;23.40;;;7.20;1.00;;;;;;5015999;28;20355;-60
2022/12/08 05:41:37;;;;;;;33.13;23.70;;;7.20;1.00;;;;;;5031812;28;20022;-60
2022/12/08 05:44:02;;;;;;;34.47;23.60;;;7.20;1.00;;;;;;5031967;28;20548;-60
2022/12/08 05:46:28;;;;;;;33.23;24.13;;;7.30;1.00;;;;;;5031700;28;20030;-60
2022/12/08 05:48:54;;;;;;;39.07;24.50;;;7.10;1.00;;;;;;5021693;28;20035;-60
2022/12/08 05:51:22;;;;;;;32.43;23.67;;;7.10;1.00;;;;;;5031834;28;20033;-60
2022/12/08 05:53:50;;;;;;;34.60;24.30;;;7.20;1.00;;;;;;5031649;28;20076;-61
2022/12/08 05:56:16;;;;;;;36.43;24.80;;;7.20;1.00;;;;;;5030465;28;20033;-60
2022/12/08 05:58:42;;;;;;;36.83;25.07;;;7.20;1.00;;;;;;5031823;28;20383;-60
2022/12/08 06:01:21;;;;;;;34.07;24.03;;;7.00;1.00;;;;;;5031788;28;20037;-60
2022/12/08 06:03:47;;;;;;;36.13;24.43;;;7.10;1.00;;;;;;5017051;28;20068;-60
2022/12/08 06:06:12;;;;;;;35.17;24.17;;;7.20;1.00;;;;;;5031528;28;20052;-60
2022/12/08 06:08:38;;;;;;;38.50;25.17;;;7.20;1.00;;;;;;5031672;28;20130;-60
2022/12/08 06:11:03;;;;;;;34.50;24.10;;;7.00;1.00;;;;;;5031603;28;20033;-60
2022/12/08 06:13:29;;;;;;;38.97;26.67;;;7.20;1.00;;;;;;5013679;28;20081;-60
2022/12/08 06:15:55;;;;;;;34.40;25.00;;;7.10;1.00;;;;;;5031357;28;20080;-60
2022/12/08 06:18:20;;;;;;;36.43;25.63;;;7.20;1.00;;;;;;5031406;28;20025;-60
2022/12/08 06:20:46;;;;;;;38.13;25.67;;;7.10;1.00;;;;;;5030714;28;20119;-60
2022/12/08 06:23:12;;;;;;;37.87;24.63;;;7.10;1.00;;;;;;5018480;28;20437;-60
2022/12/08 06:25:38;;;;;;;40.30;26.30;;;7.20;1.00;;;;;;5031298;28;20612;-60
2022/12/08 06:28:05;;;;;;;34.27;25.03;;;7.10;1.00;;;;;;5023342;28;20032;-60
2022/12/08 06:30:31;;;;;;;39.03;25.37;;;7.00;1.00;;;;;;5031273;28;20015;-60
2022/12/08 06:32:57;;;;;;;42.13;26.80;;;7.00;1.00;;;;;;5029886;28;20037;-60
2022/12/08 06:35:23;;;;;;;38.37;26.87;;;7.10;1.00;;;;;;5021498;28;20108;-60
2022/12/08 06:37:50;;;;;;;42.13;27.37;;;7.10;1.00;;;;;;5008101;28;20109;-60
2022/12/08 06:40:16;;;;;;;38.43;26.53;;;7.10;1.00;;;;;;5008490;28;20072;-60
2022/12/08 06:42:43;;;;;;;41.90;27.10;;;7.00;1.00;;;;;;5011053;28;20022;-60
2022/12/08 06:45:10;;;;;;;41.73;25.73;;;7.10;1.00;;;;;;5008568;28;20085;-60
2022/12/08 06:47:36;;;;;;;40.37;26.73;;;7.00;1.00;;;;;;5010300;28;20432;-60
2022/12/08 06:50:02;;;;;;;40.93;27.03;;;7.10;1.00;;;;;;5026213;28;20022;-60
2022/12/08 06:52:27;;;;;;;40.03;26.50;;;7.10;1.00;;;;;;5021735;28;20061;-60
2022/12/08 06:54:53;;;;;;;40.40;26.53;;;7.00;1.00;;;;;;5034955;28;20041;-60
2022/12/08 06:57:18;;;;;;;40.33;26.53;;;7.00;1.00;;;;;;5034755;28;20064;-60
2022/12/08 06:59:44;;;;;;;38.80;26.60;;;7.10;1.00;;;;;;5024133;28;20038;-60
2022/12/08 07:02:10;;;;;;;39.27;25.87;;;7.00;1.00;;;;;;5014314;28;20034;-60
2022/12/08 07:04:35;;;;;;;41.13;26.33;;;7.10;1.00;;;;;;5023281;28;20017;-60
2022/12/08 07:07:01;;;;;;;39.93;26.63;;;6.90;1.00;;;;;;5034941;28;20467;-60
2022/12/08 07:09:27;;;;;;;37.10;26.13;;;7.00;1.00;;;;;;5026438;28;20357;-60
2022/12/08 07:11:53;;;;;;;43.40;27.20;;;6.90;1.00;;;;;;5014258;28;20038;-60
2022/12/08 07:14:22;;;;;;;39.47;27.67;;;6.90;1.00;;;;;;5032796;28;20092;-60
2022/12/08 07:16:48;;;;;;;38.27;26.60;;;7.00;1.00;;;;;;5017531;28;20033;-59
2022/12/08 07:19:13;;;;;;;40.87;26.90;;;6.90;1.00;;;;;;5030527;28;20539;-60
2022/12/08 07:21:39;;;;;;;39.90;26.83;;;7.00;1.00;;;;;;5034232;28;20057;-60
2022/12/08 07:24:05;;;;;;;39.87;26.43;;;7.10;1.00;;;;;;5033903;28;20053;-60
2022/12/08 07:26:31;;;;;;;38.63;24.80;;;7.10;1.00;;;;;;5029154;28;20479;-60
2022/12/08 07:28:58;;;;;;;38.63;25.97;;;7.10;1.00;;;;;;5034045;28;20033;-60
2022/12/08 07:31:24;;;;;;;37.97;26.33;;;7.10;1.00;;;;;;5033764;28;20434;-60
2022/12/08 07:33:51;;;;;;;33.73;23.63;;;7.00;1.00;;;;;;5033848;28;20369;-61
2022/12/08 07:36:17;;;;;;;35.87;25.03;;;7.10;1.00;;;;;;5030537;28;20095;-61
2022/12/08 07:38:43;;;;;;;39.27;25.60;;;7.10;1.00;;;;;;5032466;28;20031;-61
2022/12/08 07:41:13;;;;;;;34.73;24.60;;;7.10;1.00;;;;;;5033813;28;20104;-60
2022/12/08 07:43:39;;;;;;;35.70;23.97;;;7.20;1.00;;;;;;5033624;28;20017;-60
2022/12/08 07:46:05;;;;;;;34.77;24.07;;;7.20;1.00;;;;;;5031769;28;20475;-60
2022/12/08 07:48:30;;;;;;;37.47;24.67;;;7.20;1.00;;;;;;5028760;28;20025;-60
2022/12/08 07:51:00;;;;;;;34.30;23.67;;;7.20;1.00;;;;;;5024394;28;20071;-60
2022/12/08 07:53:26;;;;;;;33.83;23.50;;;7.20;1.00;;;;;;5033698;28;20052;-60
2022/12/08 07:55:52;;;;;;;35.43;23.87;;;7.20;1.00;;;;;;5019819;28;20026;-60
2022/12/08 07:58:17;;;;;;;34.63;23.70;;;7.10;1.00;;;;;;5011168;28;20476;-60
2022/12/08 08:00:43;;;;;;;31.17;22.03;;;7.20;1.00;;;;;;5032258;28;20025;-60
2022/12/08 08:03:10;;;;;;;35.20;24.83;;;7.20;1.00;;;;;;5032179;28;20079;-60
2022/12/08 08:05:36;;;;;;;41.87;28.37;;;7.20;1.00;;;;;;5033324;28;20167;-60
2022/12/08 08:08:02;;;;;;;38.27;27.27;;;7.30;1.00;;;;;;5033660;28;20041;-60
2022/12/08 08:10:27;;;;;;;42.30;26.73;;;7.40;1.00;;;;;;5033488;28;20026;-60
2022/12/08 08:12:53;;;;;;;40.57;27.07;;;7.20;1.00;;;;;;5027024;28;20045;-60
2022/12/08 08:15:20;;;;;;;43.30;27.63;;;7.30;1.00;;;;;;5033278;28;20022;-60
2022/12/08 08:17:49;;;;;;;49.73;30.97;;;7.30;1.00;;;;;;5033172;28;20388;-60
2022/12/08 08:20:15;;;;;;;44.07;28.07;;;7.30;1.00;;;;;;5033149;28;20029;-60
2022/12/08 08:22:40;;;;;;;41.67;27.70;;;7.20;1.00;;;;;;5005535;28;20025;-60
2022/12/08 08:25:07;;;;;;;42.67;28.67;;;7.20;1.00;;;;;;5033449;28;20062;-60
2022/12/08 08:27:32;;;;;;;42.00;28.80;;;7.10;1.00;;;;;;5022861;28;20100;-59
2022/12/08 08:29:58;;;;;;;43.00;29.30;;;7.30;1.00;;;;;;5031923;28;20065;-60
2022/12/08 08:32:23;;;;;;;47.27;29.77;;;7.30;1.00;;;;;;5032905;28;20094;-59
2022/12/08 08:34:50;;;;;;;49.37;31.37;;;7.30;1.00;;;;;;5032964;28;20021;-60
2022/12/08 08:37:16;;;;;;;53.70;32.23;;;7.30;1.00;;;;;;5032927;28;20032;-60
2022/12/08 08:39:41;;;;;;;46.87;29.03;;;7.40;1.00;;;;;;5005582;28;20113;-60
2022/12/08 08:42:07;;;;;;;43.00;28.03;;;7.30;1.00;;;;;;5030085;28;20356;-59
2022/12/08 08:44:33;;;;;;;44.63;29.40;;;7.40;1.00;;;;;;5032629;28;20025;-60
2022/12/08 08:46:58;;;;;;;48.97;30.03;;;7.50;1.00;;;;;;5032648;28;20029;-59
2022/12/08 08:49:24;;;;;;;54.47;32.73;;;7.50;1.00;;;;;;5019144;28;20093;-59
2022/12/08 08:51:50;;;;;;;55.43;33.43;;;7.40;1.00;;;;;;5030543;28;20037;-59
2022/12/08 08:54:15;;;;;;;51.43;30.33;;;7.50;1.00;;;;;;5020648;28;20353;-60
2022/12/08 08:56:41;;;;;;;57.30;34.40;;;7.50;1.00;;;;;;5028655;28;20034;-60
2022/12/08 08:59:08;;;;;;;59.67;34.87;;;7.60;1.00;;;;;;5031242;28;20064;-60
2022/12/08 09:01:33;;;;;;;57.20;33.43;;;7.60;1.00;;;;;;5032316;28;20095;-59
2022/12/08 09:04:00;;;;;;;54.87;35.23;;;7.60;1.00;;;;;;5032735;28;20025;-59
2022/12/08 09:06:27;;;;;;;65.40;36.00;;;7.60;1.00;;;;;;5032319;28;20048;-60
2022/12/08 09:08:52;;;;;;;70.07;36.37;;;7.60;1.00;;;;;;5026384;28;20033;-59
2022/12/08 09:11:18;;;;;;;77.57;41.97;;;7.60;1.00;;;;;;5031829;28;20021;-59
2022/12/08 09:13:48;;;;;;;74.03;38.20;;;7.40;1.00;;;;;;5032104;28;20030;-60
2022/12/08 09:16:14;;;;;;;76.97;41.90;;;7.60;1.00;;;;;;5031893;28;20506;-59
2022/12/08 09:18:39;;;;;;;74.43;38.20;;;7.70;1.00;;;;;;5032008;28;20029;-60
2022/12/08 09:21:12;;;;;;;78.87;39.73;;;7.80;1.00;;;;;;5023648;28;20026;-59
2022/12/08 09:23:38;;;;;;;68.57;37.47;;;7.70;1.00;;;;;;5021611;28;20510;-60
2022/12/08 09:26:04;;;;;;;64.73;37.43;;;7.70;1.00;;;;;;5008124;28;20029;-60
2022/12/08 09:28:30;;;;;;;65.00;36.80;;;7.90;1.00;;;;;;5016398;28;20028;-60
2022/12/08 09:30:55;;;;;;;63.60;35.83;;;7.90;1.00;;;;;;5032087;28;20033;-59
2022/12/08 09:33:21;;;;;;;64.83;35.43;;;7.50;1.00;;;;;;5023307;28;20107;-60
2022/12/08 09:35:47;;;;;;;57.63;36.17;;;7.60;1.00;;;;;;5025834;28;20022;-60
2022/12/08 09:38:12;;;;;;;53.63;31.77;;;7.90;1.00;;;;;;5031692;28;20021;-60
2022/12/08 09:40:59;;;;;;;52.67;32.27;;;7.90;1.00;;;;;;5031709;28;20025;-60
2022/12/08 09:43:41;;;;;;;58.83;34.53;;;8.10;1.00;;;;;;5032108;28;20034;-60
2022/12/08 09:46:09;;;;;;;57.63;36.13;;;8.20;1.00;;;;;;5026338;28;20092;-60
2022/12/08 09:48:40;;;;;;;54.23;33.13;;;8.30;1.00;;;;;;5026239;28;20096;-60
2022/12/08 09:51:08;;;;;;;59.07;35.80;;;8.30;1.00;;;;;;5012025;28;20061;-60
2022/12/08 09:54:07;;;;;;;52.70;35.07;;;8.30;1.00;;;;;;5029590;28;20045;-60
2022/12/08 09:56:35;;;;;;;53.30;34.10;;;8.30;1.00;;;;;;5025667;28;20056;-60
2022/12/08 09:59:07;;;;;;;57.87;35.37;;;8.40;1.00;;;;;;5031530;28;20029;-60
2022/12/08 10:01:38;;;;;;;57.53;36.80;;;8.40;1.00;;;;;;5023085;28;20029;-60
2022/12/08 10:04:24;;;;;;;51.50;34.37;;;8.30;1.00;;;;;;5005269;28;20479;-60
2022/12/08 10:07:11;;;;;;;51.27;33.30;;;8.40;1.00;;;;;;5031422;28;20080;-60
2022/12/08 10:10:02;;;;;;;58.20;36.03;;;8.40;1.00;;;;;;5028360;28;20034;-60
2022/12/08 10:12:38;;;;;;;54.70;33.53;;;8.60;1.00;;;;;;5023472;28;20038;-60
2022/12/08 10:15:41;;;;;;;47.90;34.20;;;8.50;1.00;;;;;;5031488;28;20075;-61
2022/12/08 10:18:22;;;;;;;48.47;32.47;;;8.60;1.00;;;;;;5012868;28;20107;-60
2022/12/08 10:20:50;;;;;;;52.77;33.83;;;8.70;1.00;;;;;;5029789;28;20538;-60
2022/12/08 10:23:27;;;;;;;55.90;34.22;;;8.70;1.00;;;;;;5032688;28;20115;-60
2022/12/08 10:26:04;;;;;;;53.05;32.67;;;8.70;1.00;;;;;;5019075;28;20025;-60
2022/12/08 10:28:32;;;;;;;47.70;31.13;;;8.80;1.00;;;;;;5035325;28;20024;-60
2022/12/08 10:30:57;;;;;;;44.53;29.92;;;8.90;1.00;;;;;;5035306;28;20028;-60
2022/12/08 10:33:23;;;;;;;43.90;29.33;;;9.00;1.00;;;;;;5033674;28;20029;-59
2022/12/08 10:35:57;;;;;;;46.03;29.70;;;8.80;1.00;;;;;;5021444;28;20088;-59
2022/12/08 10:38:29;;;;;;;44.60;30.43;;;9.00;1.00;;;;;;5035228;28;20479;-59
2022/12/08 10:41:01;;;;;;;47.77;30.57;;;9.10;1.00;;;;;;5034963;28;20117;-59
2022/12/08 10:43:27;;;;;;;44.50;32.10;;;9.00;1.00;;;;;;5035045;28;20025;-59
2022/12/08 10:45:53;;;;;;;50.60;33.17;;;9.00;1.00;;;;;;5020223;28;20108;-59
2022/12/08 10:48:26;;;;;;;49.78;31.80;;;9.00;1.00;;;;;;5027736;28;20065;-59
2022/12/08 10:50:54;;;;;;;45.27;30.40;;;8.90;1.00;;;;;;5024704;28;20040;-59
2022/12/08 10:53:32;;;;;;;48.50;34.20;;;8.80;1.00;;;;;;5034232;28;20070;-59
2022/12/08 10:56:00;;;;;;;42.03;30.63;;;8.80;1.00;;;;;;5025200;28;20084;-59
2022/12/08 10:58:39;;;;;;;43.97;31.37;;;8.80;1.00;;;;;;5030933;28;20037;-59
2022/12/08 11:01:21;;;;;;;42.10;29.30;;;8.80;1.00;;;;;;5032838;28;20190;-59
2022/12/08 11:03:57;;;;;;;44.97;30.27;;;8.70;1.00;;;;;;5032649;28;20084;-59
2022/12/08 11:06:33;;;;;;;43.10;30.43;;;8.80;1.00;;;;;;5017445;28;20201;-59
2022/12/08 11:09:20;;;;;;;39.70;30.17;;;8.70;1.00;;;;;;5014183;28;20030;-59
2022/12/08 11:11:54;;;;;;;42.03;29.70;;;8.70;1.00;;;;;;5014728;28;20026;-59
2022/12/08 11:14:32;;;;;;;37.50;27.67;;;8.80;1.00;;;;;;5013030;28;20117;-59
2022/12/08 11:17:28;;;;;;;42.33;31.10;;;8.90;1.00;;;;;;5011786;28;20379;-59
2022/12/08 11:20:01;;;;;;;40.23;29.90;;;8.90;1.00;;;;;;5016324;28;20037;-59
2022/12/08 11:22:32;;;;;;;44.85;31.48;;;8.90;1.00;;;;;;5021239;28;20021;-59
2022/12/08 11:25:09;;;;;;;41.63;29.73;;;9.00;1.00;;;;;;5034136;28;20025;-59
2022/12/08 11:27:40;;;;;;;44.47;32.57;;;9.00;1.00;;;;;;5006633;28;20022;-59
2022/12/08 11:30:18;;;;;;;43.60;31.77;;;9.10;1.00;;;;;;5014474;28;20029;-59
2022/12/08 11:32:47;;;;;;;42.58;32.63;;;9.20;1.00;;;;;;5008921;28;20036;-59
2022/12/08 11:35:30;;;;;;;44.37;33.37;;;9.20;1.00;;;;;;5033866;28;20017;-59
2022/12/08 11:38:03;;;;;;;43.40;31.93;;;9.30;1.00;;;;;;5010264;28;20037;-59
2022/12/08 11:40:34;;;;;;;46.13;35.10;;;9.40;1.00;;;;;;5020137;28;20025;-59
2022/12/08 11:43:05;;;;;;;44.73;33.67;;;9.20;1.00;;;;;;5023408;28;20112;-59
2022/12/08 11:45:34;;;;;;;45.00;32.87;;;9.40;1.00;;;;;;5018813;28;20025;-59
2022/12/08 11:48:18;;;;;;;46.67;34.55;;;9.50;1.00;;;;;;5000427;28;20040;-59
2022/12/08 11:50:57;;;;;;;49.97;34.33;;;9.40;1.00;;;;;;5026994;28;20447;-59
2022/12/08 11:53:32;;;;;;;44.70;32.55;;;9.40;1.00;;;;;;5033482;28;20151;-59
2022/12/08 11:56:09;;;;;;;48.75;34.17;;;9.30;1.00;;;;;;5027712;28;20092;-59
2022/12/08 11:58:44;;;;;;;48.53;34.30;;;9.20;1.00;;;;;;5023343;28;20487;-59
2022/12/08 12:01:17;;;;;;;;;;;9.10;1.00;;;;;;5034087;28;20025;-59
2022/12/08 12:04:04;;;;;;;47.42;33.05;;;9.10;1.00;;;;;;5033730;28;20369;-59
2022/12/08 12:07:08;;;;;;;46.23;31.13;;;9.00;1.00;;;;;;5033742;28;20095;-59
2022/12/08 12:10:01;;;;;;;48.22;33.40;;;9.10;1.00;;;;;;5022338;28;20034;-60
2022/12/08 12:12:29;;;;;;;46.23;33.63;;;9.20;1.00;;;;;;5032848;28;20045;-60
2022/12/08 12:15:40;;;;;;;40.45;30.92;;;9.20;1.00;;;;;;5013439;28;20483;-60
2022/12/08 12:18:30;;;;;;;41.60;31.27;;;9.20;1.00;;;;;;5008403;28;20129;-60
2022/12/08 12:21:18;;;;;;;36.80;29.50;;;9.40;1.00;;;;;;5026198;28;20506;-60
2022/12/08 12:23:53;;;;;;;42.87;32.43;;;9.40;1.00;;;;;;5018445;28;20037;-60
2022/12/08 12:26:24;;;;;;;43.08;30.98;;;9.50;1.00;;;;;;5033476;28;20359;-60
2022/12/08 12:29:18;;;;;;;45.28;31.30;;;9.50;1.00;;;;;;5033212;28;20037;-60
2022/12/08 12:31:50;;;;;;;39.92;29.45;;;9.60;1.00;;;;;;5031505;28;20100;-60
2022/12/08 12:34:21;;;;;;;38.17;28.38;;;9.50;1.00;;;;;;5025579;28;20049;-60
2022/12/08 12:37:09;;;;;;;40.88;29.70;;;9.50;1.00;;;;;;5027482;28;20021;-60
2022/12/08 12:39:54;;;;;;;38.87;27.23;;;9.40;1.00;;;;;;5032941;28;20033;-60
2022/12/08 12:42:38;;;;;;;38.10;29.23;;;9.60;1.00;;;;;;5032865;28;20062;-60
2022/12/08 12:45:16;;;;;;;34.42;26.38;;;9.50;1.00;;;;;;5032360;28;20083;-60
2022/12/08 12:47:48;;;;;;;31.83;25.57;;;9.50;1.00;;;;;;5012217;28;20087;-60
2022/12/08 12:50:33;;;;;;;32.72;25.50;;;9.60;1.00;;;;;;5032622;28;20026;-60
2022/12/08 12:53:04;;;;;;;34.30;27.52;;;9.70;1.00;;;;;;5032367;28;20514;-60
2022/12/08 12:55:45;;;;;;;35.25;27.95;;;9.70;1.00;;;;;;5032296;28;20034;-60
2022/12/08 12:58:29;;;;;;;38.40;28.25;;;9.70;1.00;;;;;;5026933;28;20069;-60
2022/12/08 13:01:10;;;;;;;34.25;26.55;;;9.70;1.00;;;;;;5032390;28;20025;-60
2022/12/08 13:03:44;;;;;;;36.75;28.10;;;9.70;1.00;;;;;;5032350;28;20038;-60
2022/12/08 13:06:12;;;;;;;43.53;30.77;;;9.80;1.00;;;;;;5032351;28;20024;-60
2022/12/08 13:08:48;;;;;;;41.30;31.40;;;9.80;1.00;;;;;;5032062;28;20580;-60
2022/12/08 13:11:13;;;;;;;41.25;29.98;;;9.90;1.00;;;;;;5032037;28;20026;-60